Decoded Metar for EVRA (RIGA AIRPORT in LATVIA) (IATA:N/A) | Meteo·Mobile Aviation Weather
aviador You're here:

EVRA Decoded Metar

RIGA AIRPORT in LATVIA
Report Time2020-01-22 03:50:00
UTC Time2020-01-22 04:23:41
Flight Rules vfr VFR
Wind270° at 06 kt
W.Decomp.*RWY 18: 0.7 kt HW 6.0 kt RCW
Visibility9999 m
Phenomena:N/A
Clouds:N/A
Expected CloudBase > 1,200 ft AGL from Temp-Dew spread
CeilingNone
Temp05°C (ISA -10)
Dew Point02°C (81% RH)
AAT1.2°C
QNH1008 hPa
Density Alt-902 ft
Elevation33 ft
Report Wrong Elevation
Raw Report
EVRA 220350Z 27006KT 200V320 CAVOK 05/02 Q1008 R36/290195
NOSIG=

Extra information for EVRA:More info

Metar Taf Metar & Taf Last 4 Metars F.Rules Stats Wind Profile Meteogram Temp Stats Airport Information Weather charts Add Link Nearby VenuesMetar ALERT Operation Metar Decoded Social comments